createdAt,value
2022-11-12T00:00:02.135Z,0.00
2022-11-12T00:01:02.307Z,0.00
2022-11-12T00:02:02.503Z,0.00
2022-11-12T00:03:02.703Z,0.00
2022-11-12T00:04:02.845Z,0.00
2022-11-12T00:05:03.048Z,0.00
2022-11-12T00:06:03.186Z,0.00
2022-11-12T00:07:03.422Z,0.00
2022-11-12T00:08:03.554Z,0.00
2022-11-12T00:09:03.758Z,0.00
2022-11-12T00:10:03.939Z,0.00
2022-11-12T00:11:04.131Z,0.00
2022-11-12T00:12:04.296Z,0.00
2022-11-12T00:13:04.441Z,0.00
2022-11-12T00:14:04.626Z,0.00
2022-11-12T00:15:04.817Z,0.00
2022-11-12T00:16:04.991Z,0.00
2022-11-12T00:17:05.191Z,0.00
2022-11-12T00:18:05.328Z,0.00
2022-11-12T00:19:05.529Z,0.00
2022-11-12T00:20:05.697Z,0.00
2022-11-12T00:21:05.877Z,0.00
2022-11-12T00:22:06.080Z,0.00
2022-11-12T00:23:06.259Z,0.00
2022-11-12T00:24:06.440Z,0.00
2022-11-12T00:25:06.633Z,0.00
2022-11-12T00:26:06.819Z,0.00
2022-11-12T00:27:07.234Z,0.00
2022-11-12T00:28:07.185Z,0.00
2022-11-12T00:29:07.360Z,0.00
2022-11-12T00:30:07.540Z,0.00
2022-11-12T00:31:07.726Z,0.00
2022-11-12T00:32:07.925Z,0.00
2022-11-12T00:33:08.072Z,0.00
2022-11-12T00:34:08.241Z,0.00
2022-11-12T00:35:11.149Z,0.00
2022-11-12T00:36:09.601Z,0.00
2022-11-12T00:37:08.787Z,0.00
2022-11-12T00:38:08.998Z,0.00
2022-11-12T00:39:09.145Z,0.00
2022-11-12T00:40:09.315Z,0.00
2022-11-12T00:41:09.505Z,0.00
2022-11-12T00:42:09.673Z,0.00
2022-11-12T00:43:09.879Z,0.00
2022-11-12T00:44:10.021Z,0.00
2022-11-12T00:45:10.205Z,0.00
2022-11-12T00:46:10.385Z,0.00
2022-11-12T00:47:10.575Z,0.00
2022-11-12T00:48:10.774Z,0.00
2022-11-12T00:49:10.914Z,0.00
2022-11-12T00:50:11.108Z,0.00
2022-11-12T00:51:11.282Z,0.00
2022-11-12T00:52:11.471Z,0.00
2022-11-12T00:53:11.667Z,0.00
2022-11-12T00:54:11.808Z,0.00
2022-11-12T00:55:11.999Z,0.00
2022-11-12T00:56:12.177Z,0.00
2022-11-12T00:57:12.402Z,0.00
2022-11-12T00:58:12.545Z,0.00
2022-11-12T00:59:12.729Z,0.00
2022-11-12T01:00:12.907Z,0.00
2022-11-12T01:01:13.142Z,0.00
2022-11-12T01:02:13.275Z,0.00
2022-11-12T01:03:13.417Z,0.00
2022-11-12T01:04:13.600Z,0.00
2022-11-12T01:05:13.786Z,0.00
2022-11-12T01:06:13.969Z,0.00
2022-11-12T01:07:14.215Z,0.00
2022-11-12T01:08:14.343Z,0.00
2022-11-12T01:09:14.541Z,0.00
2022-11-12T01:10:14.714Z,0.00
2022-11-12T01:11:14.882Z,0.00
2022-11-12T01:12:15.022Z,0.00
2022-11-12T01:13:15.212Z,0.00
2022-11-12T01:14:15.396Z,0.00
2022-11-12T01:15:15.591Z,0.00
2022-11-12T01:16:15.794Z,0.00
2022-11-12T01:17:15.928Z,0.00
2022-11-12T01:18:16.106Z,0.00
2022-11-12T01:19:16.284Z,0.00
2022-11-12T01:20:16.493Z,0.00
2022-11-12T01:21:16.647Z,0.00
2022-11-12T01:22:16.789Z,0.00
2022-11-12T01:23:16.982Z,0.00
2022-11-12T01:24:17.158Z,0.00
2022-11-12T01:25:17.341Z,0.00
2022-11-12T01:26:17.537Z,0.00
2022-11-12T01:27:17.726Z,0.00
2022-11-12T01:28:17.895Z,0.00
2022-11-12T01:29:18.086Z,0.00
2022-11-12T01:30:18.258Z,0.00
2022-11-12T01:31:18.464Z,0.00
2022-11-12T01:32:18.648Z,0.00
2022-11-12T01:33:18.796Z,0.00
2022-11-12T01:34:18.968Z,0.00
2022-11-12T01:35:19.147Z,0.00
2022-11-12T01:36:19.348Z,0.00
2022-11-12T01:37:19.520Z,0.00
2022-11-12T01:38:19.709Z,0.00
2022-11-12T01:39:19.901Z,0.00
2022-11-12T01:40:20.080Z,0.00
2022-11-12T01:41:20.280Z,0.00
2022-11-12T01:42:20.439Z,0.00
2022-11-12T01:43:20.579Z,0.00
2022-11-12T01:44:20.772Z,0.00
2022-11-12T01:45:20.940Z,0.00
2022-11-12T01:46:21.152Z,0.00
2022-11-12T01:47:21.299Z,0.00
2022-11-12T01:48:21.471Z,0.00
2022-11-12T01:49:21.661Z,0.00
2022-11-12T01:50:21.841Z,0.00
2022-11-12T01:51:22.261Z,0.00
2022-11-12T01:52:22.199Z,0.00
2022-11-12T01:53:22.383Z,0.00
2022-11-12T01:54:22.562Z,0.00
2022-11-12T01:55:22.772Z,0.00
2022-11-12T01:56:22.985Z,0.00
2022-11-12T01:57:23.113Z,0.00
2022-11-12T01:58:23.378Z,0.00
2022-11-12T01:59:23.473Z,0.00
2022-11-12T02:00:23.663Z,0.00
2022-11-12T02:01:23.903Z,0.00
2022-11-12T02:02:23.984Z,0.00
2022-11-12T02:03:24.174Z,0.00
2022-11-12T02:04:24.364Z,0.00
2022-11-12T02:05:24.544Z,0.00
2022-11-12T02:06:24.715Z,0.00
2022-11-12T02:07:24.907Z,0.00
2022-11-12T02:08:25.439Z,0.00
2022-11-12T02:09:25.283Z,0.00
2022-11-12T02:10:25.420Z,0.00
2022-11-12T02:11:25.609Z,0.00
2022-11-12T02:12:25.797Z,0.00
2022-11-12T02:13:25.983Z,0.00
2022-11-12T02:14:26.177Z,0.00
2022-11-12T02:15:26.316Z,0.00
2022-11-12T02:16:26.489Z,0.00
2022-11-12T02:17:26.677Z,0.00
2022-11-12T02:18:27.087Z,0.00
2022-11-12T02:19:27.072Z,0.00
2022-11-12T02:20:27.209Z,0.00
2022-11-12T02:21:27.397Z,0.00
2022-11-12T02:22:27.568Z,0.00
2022-11-12T02:23:27.755Z,0.00
2022-11-12T02:24:27.969Z,0.00
2022-11-12T02:25:28.111Z,0.00
2022-11-12T02:26:28.288Z,0.00
2022-11-12T02:27:28.473Z,0.00
2022-11-12T02:28:29.022Z,0.00
2022-11-12T02:29:28.851Z,0.00
2022-11-12T02:30:28.999Z,0.00
2022-11-12T02:31:29.192Z,0.00
2022-11-12T02:32:29.360Z,0.00
2022-11-12T02:33:29.552Z,0.00
2022-11-12T02:34:29.781Z,0.00
2022-11-12T02:35:29.920Z,0.00
2022-11-12T02:36:30.098Z,0.00
2022-11-12T02:37:30.281Z,0.00
2022-11-12T02:38:30.465Z,0.00
2022-11-12T02:39:30.671Z,0.00
2022-11-12T02:40:30.804Z,0.00
2022-11-12T02:41:30.995Z,0.00
2022-11-12T02:42:31.176Z,0.00
2022-11-12T02:43:31.362Z,0.00
2022-11-12T02:44:31.557Z,0.00
2022-11-12T02:45:31.734Z,0.00
2022-11-12T02:46:31.912Z,0.00
2022-11-12T02:47:32.105Z,0.00
2022-11-12T02:48:32.285Z,0.00
2022-11-12T02:49:32.512Z,0.00
2022-11-12T02:50:32.654Z,0.00
2022-11-12T02:51:32.834Z,0.00
2022-11-12T02:52:33.004Z,0.00
2022-11-12T02:53:33.204Z,0.00
2022-11-12T02:54:33.363Z,0.00
2022-11-12T02:55:33.516Z,0.00
2022-11-12T02:56:33.697Z,0.00
2022-11-12T02:57:33.903Z,0.00
2022-11-12T02:58:34.044Z,0.00
2022-11-12T02:59:34.227Z,0.00
2022-11-12T03:00:34.396Z,0.00
2022-11-12T03:01:34.658Z,0.00
2022-11-12T03:02:34.759Z,0.00
2022-11-12T03:03:34.941Z,0.00
2022-11-12T03:04:35.127Z,0.00
2022-11-12T03:05:35.317Z,0.00
2022-11-12T03:06:35.511Z,0.00
2022-11-12T03:07:35.679Z,0.00
2022-11-12T03:08:35.865Z,0.00
2022-11-12T03:09:36.049Z,0.00
2022-11-12T03:10:36.241Z,0.00
2022-11-12T03:11:36.421Z,0.00
2022-11-12T03:12:36.595Z,0.00
2022-11-12T03:13:36.789Z,0.00
2022-11-12T03:14:36.965Z,0.00
2022-11-12T03:15:37.168Z,0.00
2022-11-12T03:16:37.302Z,0.00
2022-11-12T03:17:37.492Z,0.00
2022-11-12T03:18:37.628Z,0.00
2022-11-12T03:19:37.814Z,0.00
2022-11-12T03:20:37.994Z,0.00
2022-11-12T03:21:38.186Z,0.00
2022-11-12T03:22:38.373Z,0.00
2022-11-12T03:23:38.547Z,0.00
2022-11-12T03:24:38.733Z,0.00
2022-11-12T03:25:38.915Z,0.00
2022-11-12T03:26:39.085Z,0.00
2022-11-12T03:27:39.269Z,0.00
2022-11-12T03:28:39.480Z,0.00
2022-11-12T03:29:39.615Z,0.00
2022-11-12T03:30:39.795Z,0.00
2022-11-12T03:31:39.988Z,0.00
2022-11-12T03:32:40.165Z,0.00
2022-11-12T03:33:40.415Z,0.00
2022-11-12T03:34:40.540Z,0.00
2022-11-12T03:35:40.726Z,0.00
2022-11-12T03:36:40.901Z,0.00
2022-11-12T03:37:41.086Z,0.00
2022-11-12T03:38:41.281Z,0.00
2022-11-12T03:39:41.450Z,0.00
2022-11-12T03:40:41.649Z,0.00
2022-11-12T03:41:41.796Z,0.00
2022-11-12T03:42:41.980Z,0.00
2022-11-12T03:43:42.178Z,0.00
2022-11-12T03:44:42.338Z,0.00
2022-11-12T03:45:42.526Z,0.00
2022-11-12T03:46:44.414Z,0.00
2022-11-12T03:47:42.889Z,0.00
2022-11-12T03:48:43.048Z,0.00
2022-11-12T03:49:43.221Z,0.00
2022-11-12T03:50:43.404Z,0.00
2022-11-12T03:51:43.589Z,0.00
2022-11-12T03:52:43.771Z,0.00
2022-11-12T03:53:43.990Z,0.00
2022-11-12T03:54:44.134Z,0.00
2022-11-12T03:55:44.323Z,0.00
2022-11-12T03:56:44.501Z,0.00
2022-11-12T03:57:44.687Z,0.00
2022-11-12T03:58:44.901Z,0.00
2022-11-12T03:59:45.052Z,0.00
2022-11-12T04:00:45.263Z,0.00
2022-11-12T04:01:45.436Z,0.00
2022-11-12T04:02:45.593Z,0.00
2022-11-12T04:03:45.800Z,0.00
2022-11-12T04:04:45.937Z,0.00
2022-11-12T04:05:46.123Z,0.00
2022-11-12T04:06:46.340Z,0.00
2022-11-12T04:07:46.494Z,0.00
2022-11-12T04:08:46.696Z,0.00
2022-11-12T04:09:46.876Z,0.00
2022-11-12T04:10:47.051Z,0.00
2022-11-12T04:11:47.244Z,0.00
2022-11-12T04:12:47.456Z,0.00
2022-11-12T04:13:47.658Z,0.00
2022-11-12T04:14:47.757Z,0.00
2022-11-12T04:15:47.941Z,0.00
2022-11-12T04:16:48.131Z,0.00
2022-11-12T04:17:48.316Z,0.00
2022-11-12T04:18:48.494Z,0.00
2022-11-12T04:19:48.676Z,0.00
2022-11-12T04:20:48.857Z,0.00
2022-11-12T04:21:49.035Z,0.00
2022-11-12T04:22:49.238Z,0.00
2022-11-12T04:23:49.423Z,0.00
2022-11-12T04:24:49.569Z,0.00
2022-11-12T04:25:49.753Z,0.00
2022-11-12T04:26:49.933Z,0.00
2022-11-12T04:27:50.129Z,0.00
2022-11-12T04:28:50.308Z,0.00
2022-11-12T04:29:50.489Z,0.00
2022-11-12T04:30:50.681Z,0.00
2022-11-12T04:31:50.866Z,0.00
2022-11-12T04:32:51.069Z,0.00
2022-11-12T04:33:51.210Z,0.00
2022-11-12T04:34:51.687Z,0.00
2022-11-12T04:35:51.571Z,0.00
2022-11-12T04:36:51.750Z,0.00
2022-11-12T04:37:51.923Z,0.00
2022-11-12T04:38:52.115Z,0.00
2022-11-12T04:39:52.314Z,0.00
2022-11-12T04:40:52.483Z,0.00
2022-11-12T04:41:52.643Z,0.00
2022-11-12T04:42:52.836Z,0.00
2022-11-12T04:43:53.015Z,0.00
2022-11-12T04:44:53.212Z,0.00
2022-11-12T04:45:53.403Z,0.00
2022-11-12T04:46:53.579Z,0.00
2022-11-12T04:47:53.754Z,0.00
2022-11-12T04:48:53.945Z,0.00
2022-11-12T04:49:54.144Z,0.00
2022-11-12T04:50:54.315Z,0.00
2022-11-12T04:51:54.508Z,0.00
2022-11-12T04:52:54.686Z,0.00
2022-11-12T04:53:54.872Z,0.00
2022-11-12T04:54:55.104Z,0.00
2022-11-12T04:55:55.240Z,0.00
2022-11-12T04:56:55.429Z,0.00
2022-11-12T04:58:00.322Z,0.00
2022-11-12T04:58:56.776Z,0.00
2022-11-12T04:59:55.958Z,0.00
2022-11-12T05:00:56.205Z,0.00
2022-11-12T05:01:56.287Z,0.00
2022-11-12T05:02:56.487Z,0.00
2022-11-12T05:03:56.634Z,0.00
2022-11-12T05:04:56.818Z,0.00
2022-11-12T05:05:56.998Z,0.00
2022-11-12T05:06:57.297Z,0.00
2022-11-12T05:07:57.371Z,0.00
2022-11-12T05:08:57.548Z,0.00
2022-11-12T05:09:57.737Z,0.00
2022-11-12T05:10:57.924Z,0.00
2022-11-12T05:11:58.129Z,0.00
2022-11-12T05:12:58.271Z,0.00
2022-11-12T05:13:58.445Z,0.00
2022-11-12T05:14:58.624Z,0.00
2022-11-12T05:15:58.810Z,0.00
2022-11-12T05:16:59.015Z,0.00
2022-11-12T05:17:59.158Z,0.00
2022-11-12T05:18:59.340Z,0.00
2022-11-12T05:19:59.511Z,0.00
2022-11-12T05:20:59.700Z,0.00
2022-11-12T05:21:59.903Z,0.00
2022-11-12T05:23:06.856Z,0.00
2022-11-12T05:24:01.211Z,0.00
2022-11-12T05:25:00.389Z,0.00
2022-11-12T05:26:00.542Z,0.00
2022-11-12T05:27:00.722Z,0.00
2022-11-12T05:28:00.904Z,0.00
2022-11-12T05:29:04.940Z,0.00
2022-11-12T05:30:02.232Z,0.00
2022-11-12T05:31:01.405Z,0.00
2022-11-12T05:32:01.585Z,0.00
2022-11-12T05:33:01.774Z,0.00
2022-11-12T05:34:02.193Z,0.00
2022-11-12T05:35:02.145Z,0.00
2022-11-12T05:36:02.339Z,0.00
2022-11-12T05:37:02.515Z,0.00
2022-11-12T05:38:02.696Z,0.00
2022-11-12T05:39:02.893Z,0.00
2022-11-12T05:40:03.077Z,0.00
2022-11-12T05:41:03.257Z,0.00
2022-11-12T05:42:12.932Z,0.00
2022-11-12T05:43:04.616Z,0.00
2022-11-12T05:44:03.802Z,0.00
2022-11-12T05:45:03.937Z,0.00
2022-11-12T05:46:04.132Z,0.00
2022-11-12T05:47:04.308Z,0.00
2022-11-12T05:48:04.498Z,0.00
2022-11-12T05:49:04.686Z,0.00
2022-11-12T05:50:04.877Z,0.00
2022-11-12T05:51:13.590Z,0.00
2022-11-12T05:52:06.190Z,0.00
2022-11-12T05:53:05.370Z,0.00
2022-11-12T05:54:05.539Z,0.00
2022-11-12T05:55:05.781Z,0.00
2022-11-12T05:56:05.878Z,0.00
2022-11-12T05:57:06.069Z,0.00
2022-11-12T05:58:06.254Z,0.00
2022-11-12T05:59:06.441Z,0.00
2022-11-12T06:00:06.641Z,0.00
2022-11-12T06:01:06.782Z,0.00
2022-11-12T06:02:07.021Z,0.00
2022-11-12T06:03:07.147Z,0.00
2022-11-12T06:04:07.351Z,0.00
2022-11-12T06:05:07.501Z,0.00
2022-11-12T06:06:07.671Z,0.00
2022-11-12T06:07:07.908Z,0.00
2022-11-12T06:08:08.049Z,0.00
2022-11-12T06:09:08.244Z,0.00
2022-11-12T06:10:08.403Z,0.00
2022-11-12T06:11:08.612Z,0.00
2022-11-12T06:12:08.758Z,0.00
2022-11-12T06:13:08.943Z,0.00
2022-11-12T06:14:09.127Z,0.00
2022-11-12T06:15:09.314Z,0.00
2022-11-12T06:16:09.512Z,0.00
2022-11-12T06:17:09.686Z,0.00
2022-11-12T06:18:09.864Z,0.00
2022-11-12T06:19:10.051Z,0.00
2022-11-12T06:20:10.231Z,0.00
2022-11-12T06:21:10.462Z,0.00
2022-11-12T06:22:10.593Z,0.00
2022-11-12T06:23:10.792Z,0.00
2022-11-12T06:24:10.966Z,0.00
2022-11-12T06:25:11.151Z,0.00
2022-11-12T06:26:11.325Z,0.00
2022-11-12T06:27:11.479Z,0.00
2022-11-12T06:28:11.647Z,0.00
2022-11-12T06:29:11.826Z,0.00
2022-11-12T06:30:11.991Z,0.00
2022-11-12T06:31:12.161Z,0.00
2022-11-12T06:32:12.320Z,0.00
2022-11-12T06:33:12.486Z,0.00
2022-11-12T06:34:12.639Z,0.00
2022-11-12T06:35:12.839Z,0.00
2022-11-12T06:36:13.012Z,0.00
2022-11-12T06:37:13.181Z,0.00
2022-11-12T06:38:13.327Z,0.00
2022-11-12T06:39:13.495Z,0.00
2022-11-12T06:40:13.673Z,0.00
2022-11-12T06:41:13.840Z,0.00
2022-11-12T06:42:13.999Z,0.00
2022-11-12T06:43:14.160Z,0.00
2022-11-12T06:44:19.163Z,0.00
2022-11-12T06:45:15.513Z,0.00
2022-11-12T06:46:14.692Z,0.00
2022-11-12T06:47:14.865Z,0.00
2022-11-12T06:48:15.019Z,0.00
2022-11-12T06:49:15.191Z,0.00
2022-11-12T06:50:15.356Z,0.00
2022-11-12T06:51:15.520Z,0.00
2022-11-12T06:52:16.814Z,0.00
2022-11-12T06:53:15.853Z,0.00
2022-11-12T06:54:16.006Z,0.00
2022-11-12T06:55:16.188Z,0.00
2022-11-12T06:56:16.362Z,0.00
2022-11-12T06:57:16.513Z,0.00
2022-11-12T06:58:16.673Z,0.00
2022-11-12T06:59:16.868Z,0.00
2022-11-12T07:00:17.043Z,0.00
2022-11-12T07:01:17.287Z,0.00
2022-11-12T07:02:17.397Z,0.00
2022-11-12T07:03:17.556Z,0.00
2022-11-12T07:04:17.741Z,0.00
2022-11-12T07:05:17.900Z,0.00
2022-11-12T07:06:18.057Z,0.00
2022-11-12T07:07:18.258Z,0.00
2022-11-12T07:08:18.395Z,0.00
2022-11-12T07:09:18.600Z,5.62
2022-11-12T07:10:18.763Z,5.62
2022-11-12T07:11:18.955Z,5.62
2022-11-12T07:12:19.133Z,5.62
2022-11-12T07:13:19.291Z,11.25
2022-11-12T07:14:19.468Z,11.25
2022-11-12T07:15:19.637Z,11.25
2022-11-12T07:16:19.815Z,11.25
2022-11-12T07:17:19.998Z,16.88
2022-11-12T07:18:20.172Z,16.88
2022-11-12T07:19:20.338Z,16.88
2022-11-12T07:20:20.489Z,16.88
2022-11-12T07:21:20.653Z,16.88
2022-11-12T07:22:20.809Z,16.88
2022-11-12T07:23:20.970Z,33.75
2022-11-12T07:24:21.151Z,61.88
2022-11-12T07:25:21.299Z,73.12
2022-11-12T07:26:21.450Z,67.50
2022-11-12T07:27:21.645Z,78.75
2022-11-12T07:28:21.792Z,101.25
2022-11-12T07:29:42.565Z,202.50
2022-11-12T07:30:23.129Z,331.88
2022-11-12T07:31:22.304Z,478.12
2022-11-12T07:32:22.472Z,540.00
2022-11-12T07:33:22.642Z,506.25
2022-11-12T07:34:22.801Z,455.62
2022-11-12T07:35:22.966Z,416.25
2022-11-12T07:36:23.123Z,376.88
2022-11-12T07:37:23.301Z,331.88
2022-11-12T07:38:23.620Z,292.50
2022-11-12T07:39:23.665Z,241.88
2022-11-12T07:40:23.820Z,168.75
2022-11-12T07:41:23.991Z,118.12
2022-11-12T07:42:24.159Z,90.00
2022-11-12T07:43:24.343Z,61.88
2022-11-12T07:44:24.525Z,45.00
2022-11-12T07:45:24.696Z,45.00
2022-11-12T07:46:24.856Z,45.00
2022-11-12T07:47:25.062Z,39.38
2022-11-12T07:48:25.678Z,39.38
2022-11-12T07:49:25.410Z,39.38
2022-11-12T07:50:25.565Z,39.38
2022-11-12T07:51:25.735Z,33.75
2022-11-12T07:52:25.948Z,33.75
2022-11-12T07:53:26.070Z,33.75
2022-11-12T07:54:26.259Z,33.75
2022-11-12T07:55:26.415Z,427.50
2022-11-12T07:56:26.586Z,382.50
2022-11-12T07:57:26.779Z,348.75
2022-11-12T07:58:27.312Z,337.50
2022-11-12T07:59:27.118Z,320.62
2022-11-12T08:00:27.334Z,298.12
2022-11-12T08:01:27.500Z,315.00
2022-11-12T08:02:27.673Z,365.62
2022-11-12T08:03:27.854Z,388.12
2022-11-12T08:04:28.016Z,393.75
2022-11-12T08:05:28.182Z,388.12
2022-11-12T08:06:28.364Z,433.12
2022-11-12T08:07:28.641Z,455.62
2022-11-12T08:08:29.132Z,438.75
2022-11-12T08:09:28.917Z,410.62
2022-11-12T08:10:29.041Z,438.75
2022-11-12T08:11:29.228Z,483.75
2022-11-12T08:12:29.392Z,461.25
2022-11-12T08:13:29.599Z,450.00
2022-11-12T08:14:29.752Z,523.12
2022-11-12T08:15:30.025Z,579.38
2022-11-12T08:16:30.071Z,573.75
2022-11-12T08:17:30.252Z,579.38
2022-11-12T08:18:30.584Z,573.75
2022-11-12T08:19:30.647Z,556.88
2022-11-12T08:20:30.812Z,573.75
2022-11-12T08:21:30.954Z,562.50
2022-11-12T08:22:31.131Z,534.38
2022-11-12T08:23:31.319Z,534.38
2022-11-12T08:24:31.716Z,624.38
2022-11-12T08:25:31.644Z,641.25
2022-11-12T08:26:31.808Z,596.25
2022-11-12T08:27:32.026Z,585.00
2022-11-12T08:28:32.205Z,652.50
2022-11-12T08:29:32.358Z,675.00
2022-11-12T08:30:32.514Z,720.00
2022-11-12T08:31:32.709Z,708.75
2022-11-12T08:32:32.888Z,736.88
2022-11-12T08:33:33.027Z,663.75
2022-11-12T08:34:33.223Z,663.75
2022-11-12T08:35:33.379Z,618.75
2022-11-12T08:36:33.556Z,517.50
2022-11-12T08:37:33.732Z,483.75
2022-11-12T08:38:33.880Z,421.88
2022-11-12T08:39:34.041Z,466.88
2022-11-12T08:40:34.206Z,540.00
2022-11-12T08:41:34.385Z,444.38
2022-11-12T08:42:34.545Z,360.00
2022-11-12T08:43:34.715Z,292.50
2022-11-12T08:44:34.881Z,208.12
2022-11-12T08:45:35.029Z,180.00
2022-11-12T08:46:35.236Z,168.75
2022-11-12T08:47:35.422Z,185.62
2022-11-12T08:48:35.567Z,213.75
2022-11-12T08:49:35.717Z,236.25
2022-11-12T08:50:35.883Z,202.50
2022-11-12T08:51:36.056Z,219.38
2022-11-12T08:52:36.254Z,180.00
2022-11-12T08:53:36.403Z,157.50
2022-11-12T08:54:36.569Z,168.75
2022-11-12T08:55:36.733Z,202.50
2022-11-12T08:56:36.897Z,151.88
2022-11-12T08:57:37.070Z,151.88
2022-11-12T08:58:37.237Z,174.38
2022-11-12T08:59:37.405Z,180.00
2022-11-12T09:00:37.573Z,95.62
2022-11-12T09:01:37.750Z,129.38
2022-11-12T09:02:40.897Z,129.38
2022-11-12T09:03:38.063Z,101.25
2022-11-12T09:04:38.226Z,253.12
2022-11-12T09:05:38.394Z,337.50
2022-11-12T09:06:38.590Z,320.62
2022-11-12T09:07:54.074Z,331.88
2022-11-12T09:08:39.891Z,180.00
2022-11-12T09:09:39.060Z,146.25
2022-11-12T09:10:39.230Z,123.75
2022-11-12T09:11:39.397Z,106.88
2022-11-12T09:12:39.582Z,146.25
2022-11-12T09:13:39.782Z,168.75
2022-11-12T09:14:39.931Z,101.25
2022-11-12T09:15:40.103Z,151.88
2022-11-12T09:16:40.262Z,118.12
2022-11-12T09:17:40.460Z,118.12
2022-11-12T09:18:40.584Z,106.88
2022-11-12T09:19:42.940Z,129.38
2022-11-12T09:20:40.908Z,146.25
2022-11-12T09:21:41.085Z,174.38
2022-11-12T09:22:41.266Z,241.88
2022-11-12T09:23:41.437Z,270.00
2022-11-12T09:24:41.653Z,298.12
2022-11-12T09:25:41.769Z,247.50
2022-11-12T09:26:41.948Z,213.75
2022-11-12T09:27:47.234Z,219.38
2022-11-12T09:28:43.276Z,202.50
2022-11-12T09:29:42.476Z,225.00
2022-11-12T09:30:42.603Z,225.00
2022-11-12T09:31:42.773Z,180.00
2022-11-12T09:32:42.931Z,129.38
2022-11-12T09:33:43.101Z,101.25
2022-11-12T09:34:43.277Z,84.38
2022-11-12T09:35:43.429Z,95.62
2022-11-12T09:36:43.579Z,101.25
2022-11-12T09:37:43.751Z,123.75
2022-11-12T09:38:43.934Z,151.88
2022-11-12T09:39:44.098Z,168.75
2022-11-12T09:40:44.270Z,213.75
2022-11-12T09:41:44.447Z,230.62
2022-11-12T09:42:44.607Z,180.00
2022-11-12T09:43:44.779Z,157.50
2022-11-12T09:44:44.930Z,191.25
2022-11-12T09:46:00.003Z,163.12
2022-11-12T09:46:46.287Z,168.75
2022-11-12T09:47:45.498Z,146.25
2022-11-12T09:48:45.691Z,112.50
2022-11-12T09:49:45.814Z,106.88
2022-11-12T09:50:45.973Z,112.50
2022-11-12T09:51:46.158Z,135.00
2022-11-12T09:52:46.314Z,151.88
2022-11-12T09:53:46.499Z,146.25
2022-11-12T09:54:46.655Z,151.88
2022-11-12T09:55:46.851Z,151.88
2022-11-12T09:56:47.010Z,151.88
2022-11-12T09:57:47.415Z,151.88
2022-11-12T09:58:47.355Z,157.50
2022-11-12T09:59:47.532Z,202.50
2022-11-12T10:00:47.686Z,196.88
2022-11-12T10:01:47.893Z,140.62
2022-11-12T10:02:48.041Z,129.38
2022-11-12T10:03:48.207Z,123.75
2022-11-12T10:04:48.371Z,129.38
2022-11-12T10:05:48.527Z,123.75
2022-11-12T10:06:48.714Z,123.75
2022-11-12T10:07:48.917Z,140.62
2022-11-12T10:08:49.028Z,123.75
2022-11-12T10:09:49.199Z,123.75
2022-11-12T10:10:49.364Z,151.88
2022-11-12T10:11:49.524Z,168.75
2022-11-12T10:12:49.927Z,157.50
2022-11-12T10:13:49.850Z,135.00
2022-11-12T10:14:50.034Z,118.12
2022-11-12T10:15:50.191Z,135.00
2022-11-12T10:16:50.356Z,157.50
2022-11-12T10:17:50.542Z,180.00
2022-11-12T10:18:50.702Z,140.62
2022-11-12T10:19:50.866Z,129.38
2022-11-12T10:20:51.023Z,129.38
2022-11-12T10:21:51.195Z,129.38
2022-11-12T10:22:51.377Z,112.50
2022-11-12T10:23:51.533Z,106.88
2022-11-12T10:24:51.697Z,123.75
2022-11-12T10:25:51.875Z,163.12
2022-11-12T10:26:52.063Z,185.62
2022-11-12T10:27:52.247Z,129.38
2022-11-12T10:28:52.404Z,129.38
2022-11-12T10:29:52.585Z,123.75
2022-11-12T10:30:52.756Z,112.50
2022-11-12T10:31:52.947Z,112.50
2022-11-12T10:32:53.085Z,112.50
2022-11-12T10:33:53.266Z,112.50
2022-11-12T10:34:53.451Z,135.00
2022-11-12T10:35:53.617Z,140.62
2022-11-12T10:36:55.464Z,157.50
2022-11-12T10:37:53.963Z,180.00
2022-11-12T10:38:54.119Z,219.38
2022-11-12T10:39:54.319Z,264.38
2022-11-12T10:40:54.460Z,320.62
2022-11-12T10:41:54.666Z,292.50
2022-11-12T10:42:54.816Z,241.88
2022-11-12T10:43:55.009Z,196.88
2022-11-12T10:44:55.161Z,157.50
2022-11-12T10:45:55.348Z,168.75
2022-11-12T10:46:55.540Z,185.62
2022-11-12T10:47:55.742Z,157.50
2022-11-12T10:48:55.902Z,157.50
2022-11-12T10:49:56.073Z,157.50
2022-11-12T10:50:56.251Z,163.12
2022-11-12T10:51:56.430Z,196.88
2022-11-12T10:52:56.620Z,253.12
2022-11-12T10:53:56.811Z,343.12
2022-11-12T10:54:56.958Z,461.25
2022-11-12T10:55:57.135Z,534.38
2022-11-12T10:56:57.324Z,545.62
2022-11-12T10:57:57.505Z,466.88
2022-11-12T10:58:57.639Z,438.75
2022-11-12T10:59:57.815Z,376.88
2022-11-12T11:00:57.989Z,303.75
2022-11-12T11:01:58.247Z,270.00
2022-11-12T11:02:58.357Z,230.62
2022-11-12T11:03:58.536Z,219.38
2022-11-12T11:04:58.702Z,230.62
2022-11-12T11:05:58.878Z,185.62
2022-11-12T11:06:59.119Z,157.50
2022-11-12T11:07:59.231Z,151.88
2022-11-12T11:08:59.395Z,140.62
2022-11-12T11:09:59.574Z,123.75
2022-11-12T11:10:59.763Z,118.12
2022-11-12T11:11:59.940Z,106.88
2022-11-12T11:13:00.610Z,101.25
2022-11-12T11:14:00.290Z,95.62
2022-11-12T11:15:00.530Z,90.00
2022-11-12T11:16:00.641Z,95.62
2022-11-12T11:17:00.789Z,95.62
2022-11-12T11:18:00.995Z,95.62
2022-11-12T11:19:01.153Z,106.88
2022-11-12T11:20:01.338Z,106.88
2022-11-12T11:21:01.483Z,106.88
2022-11-12T11:22:01.646Z,106.88
2022-11-12T11:23:01.822Z,106.88
2022-11-12T11:24:02.003Z,112.50
2022-11-12T11:25:02.192Z,112.50
2022-11-12T11:26:02.373Z,106.88
2022-11-12T11:27:02.560Z,112.50
2022-11-12T11:28:02.708Z,106.88
2022-11-12T11:29:02.883Z,106.88
2022-11-12T11:30:03.115Z,112.50
2022-11-12T11:31:03.238Z,118.12
2022-11-12T11:32:03.435Z,112.50
2022-11-12T11:33:03.586Z,112.50
2022-11-12T11:34:03.765Z,112.50
2022-11-12T11:35:03.946Z,106.88
2022-11-12T11:36:04.133Z,112.50
2022-11-12T11:37:04.311Z,129.38
2022-11-12T11:38:04.499Z,146.25
2022-11-12T11:39:04.693Z,140.62
2022-11-12T11:40:04.849Z,112.50
2022-11-12T11:41:05.018Z,106.88
2022-11-12T11:42:05.192Z,112.50
2022-11-12T11:43:05.364Z,123.75
2022-11-12T11:44:08.769Z,118.12
2022-11-12T11:45:06.720Z,112.50
2022-11-12T11:46:05.922Z,118.12
2022-11-12T11:47:06.051Z,118.12
2022-11-12T11:48:06.226Z,112.50
2022-11-12T11:49:06.400Z,118.12
2022-11-12T11:50:06.597Z,123.75
2022-11-12T11:51:06.732Z,123.75
2022-11-12T11:52:06.910Z,123.75
2022-11-12T11:53:07.081Z,129.38
2022-11-12T11:54:07.268Z,135.00
2022-11-12T11:55:07.441Z,118.12
2022-11-12T11:56:07.643Z,140.62
2022-11-12T11:57:07.783Z,90.00
2022-11-12T11:58:07.933Z,95.62
2022-11-12T11:59:08.154Z,90.00
2022-11-12T12:00:08.296Z,90.00
2022-11-12T12:01:08.476Z,90.00
2022-11-12T12:02:08.650Z,90.00
2022-11-12T12:03:08.861Z,73.12
2022-11-12T12:04:09.037Z,61.88
2022-11-12T12:05:09.171Z,56.25
2022-11-12T12:06:09.327Z,61.88
2022-11-12T12:07:09.542Z,56.25
2022-11-12T12:08:09.684Z,56.25
2022-11-12T12:09:09.876Z,67.50
2022-11-12T12:10:10.019Z,78.75
2022-11-12T12:11:10.190Z,73.12
2022-11-12T12:12:10.368Z,67.50
2022-11-12T12:13:10.547Z,61.88
2022-11-12T12:14:10.785Z,67.50
2022-11-12T12:15:10.871Z,67.50
2022-11-12T12:16:11.050Z,61.88
2022-11-12T12:17:11.211Z,61.88
2022-11-12T12:18:11.412Z,61.88
2022-11-12T12:19:11.543Z,56.25
2022-11-12T12:20:11.701Z,56.25
2022-11-12T12:21:11.864Z,61.88
2022-11-12T12:22:12.024Z,61.88
2022-11-12T12:23:12.220Z,67.50
2022-11-12T12:24:12.355Z,61.88
2022-11-12T12:25:12.520Z,61.88
2022-11-12T12:26:12.696Z,67.50
2022-11-12T12:27:12.875Z,78.75
2022-11-12T12:28:13.051Z,67.50
2022-11-12T12:29:13.206Z,61.88
2022-11-12T12:30:13.404Z,67.50
2022-11-12T12:31:13.566Z,73.12
2022-11-12T12:32:13.763Z,78.75
2022-11-12T12:33:13.908Z,78.75
2022-11-12T12:34:14.088Z,73.12
2022-11-12T12:35:14.280Z,73.12
2022-11-12T12:36:14.449Z,73.12
2022-11-12T12:37:14.578Z,73.12
2022-11-12T12:38:14.742Z,73.12
2022-11-12T12:39:14.911Z,73.12
2022-11-12T12:40:15.128Z,73.12
2022-11-12T12:41:15.247Z,73.12
2022-11-12T12:42:15.410Z,73.12
2022-11-12T12:43:15.585Z,73.12
2022-11-12T12:44:15.760Z,78.75
2022-11-12T12:45:15.950Z,78.75
2022-11-12T12:46:16.087Z,78.75
2022-11-12T12:47:16.263Z,78.75
2022-11-12T12:48:16.430Z,78.75
2022-11-12T12:49:16.584Z,78.75
2022-11-12T12:50:16.772Z,78.75
2022-11-12T12:51:16.946Z,78.75
2022-11-12T12:52:17.083Z,78.75
2022-11-12T12:53:17.296Z,78.75
2022-11-12T12:54:17.432Z,73.12
2022-11-12T12:55:17.624Z,73.12
2022-11-12T12:56:17.876Z,78.75
2022-11-12T12:57:17.945Z,78.75
2022-11-12T12:58:18.128Z,84.38
2022-11-12T12:59:18.286Z,84.38
2022-11-12T13:00:18.436Z,84.38